Time;durP1;ratioP1;P1;durP2;ratioP2;P2;SDS_P1;SDS_P2;PMS_P1;PMS_P2;Temp;Humidity;BMP_temperature;BMP_pressure;BME280_temperature;BME280_humidity;BME280_pressure;Samples;Min_cycle;Max_cycle;Signal;HPM_P1;HPM_P2
2021/12/17 00:00:08;;;;;;;6.93;2.30;;;22.40;99.90;;;;;;4994897;28;20045;-63
2021/12/17 00:05:18;;;;;;;6.97;1.83;;;22.50;99.90;;;;;;4990448;28;20045;-65
2021/12/17 00:07:45;;;;;;;5.22;2.13;;;22.60;99.90;;;;;;4988918;28;20106;-64
2021/12/17 00:10:18;;;;;;;6.32;2.03;;;22.60;99.90;;;;;;4994425;28;20409;-63
2021/12/17 00:12:46;;;;;;;8.02;1.85;;;22.80;99.90;;;;;;4994496;28;20105;-64
2021/12/17 00:15:14;;;;;;;9.05;1.98;;;23.00;99.90;;;;;;4990729;28;20022;-63
2021/12/17 00:17:51;;;;;;;8.75;1.85;;;22.70;99.90;;;;;;4988294;28;20031;-63
2021/12/17 00:20:59;;;;;;;5.88;2.00;;;22.60;99.90;;;;;;4993614;28;20041;-64
2021/12/17 00:53:28;;;;;;;8.05;2.00;;;22.60;99.90;;;;;;4993335;28;20058;-65
2021/12/17 00:55:55;;;;;;;5.60;2.00;;;22.80;99.90;;;;;;4991507;28;20058;-64
2021/12/17 00:58:23;;;;;;;4.55;1.83;;;22.90;99.90;;;;;;4992944;28;20534;-65
2021/12/17 01:00:51;;;;;;;9.80;2.20;;;22.90;99.90;;;;;;4992990;28;20048;-66
2021/12/17 01:03:18;;;;;;;10.32;1.80;;;22.80;99.90;;;;;;4992990;28;20050;-66
2021/12/17 01:05:45;;;;;;;11.20;1.98;;;22.90;99.90;;;;;;4993233;28;20022;-66
2021/12/17 01:08:13;;;;;;;7.53;2.00;;;22.80;99.90;;;;;;4990109;28;20022;-66
2021/12/17 01:10:51;;;;;;;10.13;2.17;;;22.80;99.90;;;;;;4993451;28;20022;-65
2021/12/17 01:13:18;;;;;;;10.60;2.17;;;23.00;99.90;;;;;;4984251;28;20023;-66
2021/12/17 01:15:46;;;;;;;8.07;2.63;;;23.20;99.90;;;;;;4984947;28;20023;-66
2021/12/17 01:18:18;;;;;;;7.72;1.80;;;23.30;99.90;;;;;;4991238;28;20026;-66
2021/12/17 01:38:39;;;;;;;10.48;2.13;;;23.50;99.90;;;;;;4992902;28;20036;-65
2021/12/17 01:42:47;;;;;;;6.50;2.05;;;23.30;99.90;;;;;;4989917;28;20040;-65
2021/12/17 01:45:14;;;;;;;3.92;1.98;;;23.30;99.90;;;;;;4990997;28;20027;-64
2021/12/17 01:47:41;;;;;;;3.55;2.17;;;23.30;99.90;;;;;;4992061;28;20032;-64
2021/12/17 01:56:03;;;;;;;5.57;2.00;;;23.50;99.90;;;;;;4990080;28;20041;-64
2021/12/17 02:01:17;;;;;;;7.80;2.60;;;23.70;99.90;;;;;;4990082;28;20026;-64
2021/12/17 02:03:44;;;;;;;7.07;2.58;;;23.70;99.90;;;;;;4990342;28;20030;-63
2021/12/17 02:06:12;;;;;;;5.93;2.17;;;23.60;99.90;;;;;;4995003;28;20097;-64
2021/12/17 02:08:39;;;;;;;13.57;2.70;;;23.50;99.90;;;;;;4992781;28;20506;-63
2021/12/17 02:22:51;;;;;;;8.57;2.05;;;23.80;99.90;;;;;;4996122;28;20033;-64
2021/12/17 02:31:25;;;;;;;7.13;2.08;;;23.60;99.90;;;;;;4992322;28;20104;-64
2021/12/17 02:33:31;;;;;;;6.50;2.72;;;23.60;99.90;;;;;;4993167;28;20034;-65
2021/12/17 02:36:00;;;;;;;5.00;2.45;;;23.50;99.90;;;;;;4996471;28;20023;-65
2021/12/17 02:38:30;;;;;;;8.55;3.22;;;23.70;99.90;;;;;;4996315;28;20061;-65
2021/12/17 02:46:28;;;;;;;9.05;2.72;;;24.70;99.90;;;;;;4996252;28;20109;-64
2021/12/17 02:48:56;;;;;;;9.13;2.10;;;24.60;99.90;;;;;;4995821;28;20081;-65
2021/12/17 02:51:23;;;;;;;14.02;2.72;;;24.30;99.90;;;;;;4995875;28;20542;-65
2021/12/17 02:53:52;;;;;;;11.02;2.67;;;23.70;99.90;;;;;;4995475;28;20033;-65
2021/12/17 02:56:21;;;;;;;7.93;2.33;;;23.40;99.90;;;;;;4994829;28;20025;-65
2021/12/17 02:58:49;;;;;;;7.35;3.33;;;23.40;99.90;;;;;;4994326;28;20038;-63
2021/12/17 03:01:17;;;;;;;15.77;3.35;;;23.50;99.90;;;;;;4995462;28;20033;-63
2021/12/17 03:03:48;;;;;;;9.00;1.80;;;23.60;99.90;;;;;;4995678;28;20058;-65
2021/12/17 03:06:16;;;;;;;9.30;2.92;;;23.60;99.90;;;;;;4995670;28;20478;-64
2021/12/17 03:08:47;;;;;;;8.73;2.60;;;23.70;99.90;;;;;;4991733;28;20467;-65
2021/12/17 03:11:15;;;;;;;8.13;3.15;;;23.70;99.90;;;;;;4994943;28;20460;-64
2021/12/17 03:13:44;;;;;;;11.35;2.90;;;24.10;99.90;;;;;;4995681;28;20027;-63
2021/12/17 03:16:39;;;;;;;9.90;2.92;;;24.20;99.90;;;;;;4995189;28;20018;-65
2021/12/17 03:24:13;;;;;;;11.73;2.75;;;23.70;99.90;;;;;;4984629;28;20057;-63
2021/12/17 03:26:40;;;;;;;7.78;2.83;;;23.90;99.90;;;;;;4985701;28;20018;-63
2021/12/17 03:29:09;;;;;;;6.95;2.63;;;24.00;99.90;;;;;;4986451;28;20105;-63
2021/12/17 03:31:36;;;;;;;13.23;3.10;;;24.10;99.90;;;;;;4992524;28;20464;-63
2021/12/17 03:34:20;;;;;;;6.47;2.15;;;24.30;99.90;;;;;;4994805;28;20031;-63
2021/12/17 03:36:54;;;;;;;7.60;3.13;;;24.30;99.90;;;;;;4988512;28;20035;-65
2021/12/17 03:39:26;;;;;;;11.80;2.58;;;24.70;99.90;;;;;;4987171;28;20109;-63
2021/12/17 03:41:55;;;;;;;8.98;2.78;;;24.80;99.90;;;;;;4992308;28;20019;-63
2021/12/17 03:44:23;;;;;;;8.25;2.13;;;24.50;99.90;;;;;;4995021;28;20419;-65
2021/12/17 03:46:52;;;;;;;7.30;1.92;;;24.80;99.90;;;;;;4995047;28;20105;-64
2021/12/17 03:49:22;;;;;;;6.28;2.15;;;25.20;99.90;;;;;;4994503;28;20023;-63
2021/12/17 03:52:03;;;;;;;13.80;2.85;;;25.60;99.90;;;;;;4994935;28;20022;-65
2021/12/17 03:54:37;;;;;;;7.43;2.00;;;26.10;99.90;;;;;;4994860;28;20030;-65
2021/12/17 03:57:09;;;;;;;8.30;2.13;;;25.90;99.90;;;;;;4994690;28;20054;-65
2021/12/17 03:59:36;;;;;;;6.45;2.60;;;26.00;99.90;;;;;;4994691;28;20038;-65
2021/12/17 04:02:04;;;;;;;9.90;2.75;;;25.70;99.90;;;;;;4994583;28;20050;-63
2021/12/17 04:04:31;;;;;;;5.47;2.38;;;25.60;99.90;;;;;;4994651;28;20030;-65
2021/12/17 04:06:59;;;;;;;6.43;1.95;;;25.40;99.90;;;;;;4994752;28;20026;-62
2021/12/17 04:09:29;;;;;;;7.88;2.53;;;25.10;99.90;;;;;;4993988;28;20104;-64
2021/12/17 04:11:57;;;;;;;6.80;2.63;;;25.20;99.90;;;;;;4994038;28;20091;-65
2021/12/17 04:14:33;;;;;;;8.32;1.98;;;25.50;99.90;;;;;;4994426;28;20101;-65
2021/12/17 04:17:04;;;;;;;6.80;2.25;;;25.50;99.90;;;;;;4994209;28;20126;-63
2021/12/17 04:19:33;;;;;;;5.50;2.10;;;25.60;99.90;;;;;;4993860;28;20018;-66
2021/12/17 04:22:00;;;;;;;8.35;2.40;;;26.00;99.90;;;;;;4993573;28;20033;-63
2021/12/17 04:24:27;;;;;;;8.68;2.13;;;26.10;99.90;;;;;;4993935;28;20387;-65
2021/12/17 04:26:55;;;;;;;6.00;2.42;;;26.30;99.90;;;;;;4991106;28;20487;-65
2021/12/17 04:29:24;;;;;;;5.45;2.63;;;26.70;99.90;;;;;;4992520;28;20110;-64
2021/12/17 04:31:56;;;;;;;5.85;2.42;;;26.70;99.90;;;;;;4993550;28;20028;-65
2021/12/17 04:34:24;;;;;;;12.27;3.33;;;26.70;99.90;;;;;;4992530;28;20022;-64
2021/12/17 04:36:54;;;;;;;8.38;2.67;;;26.30;99.90;;;;;;4993881;28;20390;-63
2021/12/17 04:39:23;;;;;;;6.80;1.65;;;26.30;99.90;;;;;;4986897;28;20085;-64
2021/12/17 04:57:44;;;;;;;;;;;25.80;99.90;;;;;;4992944;28;20037;-64
2021/12/17 05:00:19;;;;;;;8.18;2.65;;;25.70;99.90;;;;;;4993694;28;19910;-63
2021/12/17 05:02:49;;;;;;;;;;;25.70;99.90;;;;;;4993922;28;20100;-63
2021/12/17 05:05:18;;;;;;;6.70;1.63;;;25.70;99.90;;;;;;4993733;28;20387;-63
2021/12/17 05:07:52;;;;;;;8.73;2.25;;;25.70;99.90;;;;;;4993706;28;20432;-63
2021/12/17 05:18:49;;;;;;;9.75;2.47;;;25.40;99.90;;;;;;4988837;28;20060;-65
2021/12/17 05:21:21;;;;;;;7.95;2.00;;;25.20;99.90;;;;;;4990883;28;20054;-66
2021/12/17 05:23:51;;;;;;;4.97;1.98;;;25.10;99.90;;;;;;4993381;28;20069;-63
2021/12/17 05:26:21;;;;;;;9.00;2.17;;;25.10;99.90;;;;;;4993429;28;20023;-63
2021/12/17 05:28:49;;;;;;;4.15;1.75;;;25.20;99.90;;;;;;4993358;28;20031;-63
2021/12/17 05:31:21;;;;;;;6.13;1.73;;;25.20;99.90;;;;;;4991216;28;20053;-67
2021/12/17 05:33:53;;;;;;;2.42;1.42;;;25.20;99.90;;;;;;4993306;28;20035;-66
2021/12/17 05:36:23;;;;;;;8.65;2.15;;;25.40;99.90;;;;;;4991513;28;20019;-67
2021/12/17 05:38:50;;;;;;;4.30;1.42;;;25.60;99.90;;;;;;4994120;28;20018;-64
2021/12/17 05:41:18;;;;;;;4.20;1.40;;;25.70;99.90;;;;;;4997192;28;20026;-67
2021/12/17 05:43:54;;;;;;;7.78;2.00;;;25.80;99.90;;;;;;4997326;28;20128;-64
2021/12/17 05:46:36;;;;;;;7.43;1.73;;;25.90;99.90;;;;;;4993018;28;20149;-66
2021/12/17 05:49:04;;;;;;;6.97;1.67;;;25.90;99.90;;;;;;4995877;28;20468;-64
2021/12/17 05:51:32;;;;;;;5.78;1.52;;;25.80;99.90;;;;;;4996836;28;20027;-64
2021/12/17 05:53:59;;;;;;;6.55;1.95;;;25.60;99.90;;;;;;4997242;28;20019;-64
2021/12/17 05:56:27;;;;;;;3.20;1.50;;;25.70;99.90;;;;;;4997042;28;20132;-64
2021/12/17 05:58:56;;;;;;;5.90;1.48;;;25.40;99.90;;;;;;4988285;28;20018;-63
2021/12/17 06:01:24;;;;;;;4.00;1.08;;;24.90;99.90;;;;;;4987165;28;20484;-65
2021/12/17 06:03:51;;;;;;;6.72;1.30;;;24.70;99.90;;;;;;4986167;28;20034;-67
2021/12/17 06:06:40;;;;;;;2.80;1.35;;;24.80;99.90;;;;;;4987638;28;20033;-64
2021/12/17 06:09:09;;;;;;;7.55;1.08;;;24.80;99.90;;;;;;4996023;28;20022;-65
2021/12/17 06:11:37;;;;;;;7.95;1.60;;;24.70;99.90;;;;;;4987577;28;20476;-66
2021/12/17 06:14:05;;;;;;;4.25;1.48;;;24.70;99.90;;;;;;4987628;28;20031;-65
2021/12/17 06:16:34;;;;;;;5.15;1.85;;;24.60;99.90;;;;;;4985862;28;20023;-64
2021/12/17 06:19:03;;;;;;;3.30;1.02;;;24.50;99.90;;;;;;4986960;28;20084;-66
2021/12/17 06:21:30;;;;;;;5.00;1.92;;;24.50;99.90;;;;;;4987891;28;20023;-66
2021/12/17 06:23:57;;;;;;;3.80;1.55;;;24.50;99.90;;;;;;4986161;28;20031;-66
2021/12/17 06:26:25;;;;;;;5.10;2.13;;;24.50;99.90;;;;;;4986457;28;20376;-66
2021/12/17 06:28:53;;;;;;;5.32;1.35;;;24.30;99.90;;;;;;4987686;28;20029;-64
2021/12/17 06:31:23;;;;;;;6.00;1.65;;;24.50;99.90;;;;;;4986150;28;20026;-64
2021/12/17 06:33:50;;;;;;;8.05;1.85;;;24.60;99.90;;;;;;4994806;28;20019;-65
2021/12/17 06:36:18;;;;;;;4.63;1.83;;;24.50;99.90;;;;;;4995260;28;20407;-66
2021/12/17 06:38:45;;;;;;;4.60;1.42;;;24.60;99.90;;;;;;4995009;28;20077;-66
2021/12/17 06:41:12;;;;;;;7.00;1.50;;;24.70;99.90;;;;;;4994249;28;20399;-65
2021/12/17 06:43:42;;;;;;;5.80;1.55;;;24.90;99.90;;;;;;4993890;28;20466;-66
2021/12/17 06:49:08;;;;;;;4.22;1.60;;;25.10;99.90;;;;;;4994742;28;20030;-66
2021/12/17 06:54:53;;;;;;;9.25;3.15;;;25.40;99.90;;;;;;4993704;28;20021;-66
2021/12/17 07:00:36;;;;;;;14.02;4.75;;;24.80;99.90;;;;;;4994374;28;20128;-65
2021/12/17 07:06:01;;;;;;;13.40;2.05;;;24.40;99.90;;;;;;4992165;28;20085;-65
2021/12/17 07:11:23;;;;;;;9.10;2.50;;;24.10;99.90;;;;;;4993719;28;20025;-66
2021/12/17 07:22:04;;;;;;;6.88;2.13;;;23.70;99.90;;;;;;4994775;28;20400;-65
2021/12/17 07:35:46;;;;;;;5.43;1.50;;;24.00;99.90;;;;;;4994325;28;20120;-66
2021/12/17 07:41:03;;;;;;;3.15;1.00;;;24.40;99.90;;;;;;4994736;28;20045;-66
2021/12/17 07:43:51;;;;;;;10.30;1.70;;;24.80;99.90;;;;;;4993818;28;20088;-66
2021/12/17 07:46:19;;;;;;;6.72;1.80;;;25.20;99.90;;;;;;4993376;28;20116;-66
2021/12/17 07:48:48;;;;;;;4.63;1.42;;;25.30;99.90;;;;;;4994180;28;20137;-66
2021/12/17 07:51:18;;;;;;;5.35;2.15;;;24.60;99.90;;;;;;4991895;28;20023;-66
2021/12/17 07:53:46;;;;;;;6.50;1.30;;;24.00;99.90;;;;;;4994416;28;20022;-65
2021/12/17 07:56:18;;;;;;;6.43;1.75;;;23.60;99.90;;;;;;4993433;28;20019;-66
2021/12/17 07:58:47;;;;;;;3.90;1.25;;;23.20;99.90;;;;;;4988752;28;20428;-65
2021/12/17 08:01:14;;;;;;;5.78;1.42;;;23.00;99.90;;;;;;4990814;28;20026;-66
2021/12/17 08:03:43;;;;;;;8.02;1.42;;;22.70;99.90;;;;;;4991927;28;20038;-65
2021/12/17 08:06:11;;;;;;;4.47;1.25;;;22.50;99.90;;;;;;4990885;28;20030;-65
2021/12/17 08:08:39;;;;;;;10.20;1.63;;;22.40;99.90;;;;;;4990948;28;20022;-66
2021/12/17 08:11:08;;;;;;;5.45;2.15;;;22.30;99.90;;;;;;4990722;28;20022;-65
2021/12/17 08:13:36;;;;;;;7.07;2.03;;;22.30;99.90;;;;;;4991300;28;20043;-65
2021/12/17 08:16:18;;;;;;;6.97;1.50;;;22.20;99.90;;;;;;4990773;28;20034;-66
2021/12/17 08:27:47;;;;;;;5.55;1.75;;;21.90;99.90;;;;;;4990797;28;20502;-65
2021/12/17 08:29:51;;;;;;;7.65;2.20;;;21.90;99.90;;;;;;4986540;28;20077;-65
2021/12/17 08:32:19;;;;;;;6.78;1.90;;;21.90;99.90;;;;;;4991502;28;20034;-65
2021/12/17 08:34:47;;;;;;;5.13;2.13;;;21.80;99.90;;;;;;4992303;28;20057;-65
2021/12/17 08:37:15;;;;;;;4.05;1.83;;;21.80;99.90;;;;;;4992276;28;20022;-65
2021/12/17 08:39:43;;;;;;;8.75;2.20;;;21.80;99.90;;;;;;4992868;28;20030;-65
2021/12/17 08:42:11;;;;;;;4.15;1.33;;;21.70;99.90;;;;;;4991821;28;20058;-65
2021/12/17 08:44:38;;;;;;;3.63;1.35;;;21.70;99.90;;;;;;4991694;28;20281;-66
2021/12/17 08:47:06;;;;;;;9.68;2.08;;;21.60;99.90;;;;;;4992336;28;20364;-65
2021/12/17 08:49:35;;;;;;;5.88;1.85;;;21.50;99.90;;;;;;4993162;28;20034;-65
2021/12/17 08:52:03;;;;;;;10.75;1.55;;;21.50;99.90;;;;;;4992450;28;20033;-65
2021/12/17 08:54:30;;;;;;;8.77;1.80;;;21.40;99.90;;;;;;4993602;28;20034;-65
2021/12/17 08:56:58;;;;;;;10.65;1.85;;;21.30;99.90;;;;;;4993508;28;20030;-65
2021/12/17 08:59:29;;;;;;;4.70;1.55;;;21.20;99.90;;;;;;4992206;28;20021;-65
2021/12/17 09:01:57;;;;;;;6.18;2.03;;;21.20;99.90;;;;;;4991647;28;20479;-66
2021/12/17 09:04:27;;;;;;;5.38;1.35;;;21.20;99.90;;;;;;4991562;28;20061;-65
2021/12/17 09:06:56;;;;;;;8.15;2.28;;;21.20;99.90;;;;;;4991819;28;20369;-66
2021/12/17 09:09:25;;;;;;;3.83;1.58;;;21.10;99.90;;;;;;4991546;28;20023;-65
2021/12/17 09:11:53;;;;;;;4.70;1.73;;;21.00;99.90;;;;;;4991266;28;20112;-65
2021/12/17 09:14:21;;;;;;;11.48;2.47;;;20.90;99.90;;;;;;4992161;28;20021;-64
2021/12/17 09:16:50;;;;;;;5.43;1.10;;;20.90;99.90;;;;;;4993429;28;20550;-65
2021/12/17 09:19:18;;;;;;;7.88;2.00;;;20.90;99.90;;;;;;4992086;28;20125;-65
2021/12/17 09:21:46;;;;;;;11.90;1.90;;;20.90;99.90;;;;;;4993841;28;20026;-65
2021/12/17 09:24:14;;;;;;;6.80;1.90;;;20.90;99.90;;;;;;4993113;28;20046;-65
2021/12/17 09:26:42;;;;;;;4.93;1.85;;;20.90;99.90;;;;;;4993371;28;20022;-65
2021/12/17 09:29:09;;;;;;;4.82;1.60;;;20.80;99.90;;;;;;4990949;28;20039;-65
2021/12/17 09:31:37;;;;;;;7.22;1.75;;;20.80;99.90;;;;;;4991409;28;20060;-65
2021/12/17 09:34:05;;;;;;;9.77;2.72;;;20.70;99.90;;;;;;4992579;28;20037;-65
2021/12/17 09:36:33;;;;;;;7.15;2.25;;;20.70;99.90;;;;;;4992335;28;20387;-66
2021/12/17 09:39:01;;;;;;;7.38;1.80;;;20.70;99.90;;;;;;4992496;28;20053;-65
2021/12/17 09:41:29;;;;;;;5.60;1.73;;;20.70;99.90;;;;;;4992430;28;20023;-64
2021/12/17 09:43:57;;;;;;;6.13;1.90;;;20.60;99.90;;;;;;4992405;28;20502;-64
2021/12/17 09:46:25;;;;;;;7.20;2.28;;;20.60;99.90;;;;;;4992448;28;20530;-64
2021/12/17 09:48:54;;;;;;;8.18;1.45;;;20.50;99.90;;;;;;4992363;28;20026;-65
2021/12/17 09:51:22;;;;;;;10.55;2.13;;;20.50;99.90;;;;;;4992235;28;20506;-66
2021/12/17 09:53:50;;;;;;;8.65;1.52;;;20.50;99.90;;;;;;4992309;28;20403;-67
2021/12/17 09:56:18;;;;;;;4.82;1.20;;;20.40;99.90;;;;;;4992288;28;20018;-65
2021/12/17 09:58:45;;;;;;;9.07;2.17;;;20.30;99.90;;;;;;4992236;28;20080;-64
2021/12/17 10:01:13;;;;;;;5.88;2.42;;;20.30;99.90;;;;;;4992306;28;20029;-64
2021/12/17 10:03:41;;;;;;;8.25;2.10;;;20.20;99.90;;;;;;4992440;28;20399;-64
2021/12/17 10:06:22;;;;;;;10.60;2.05;;;20.30;99.90;;;;;;4992248;28;20015;-64
2021/12/17 10:08:50;;;;;;;7.70;1.77;;;20.30;99.90;;;;;;4992205;28;20092;-64
2021/12/17 10:11:18;;;;;;;9.35;2.15;;;20.30;99.90;;;;;;4992122;28;20023;-64
2021/12/17 10:13:47;;;;;;;8.85;2.42;;;20.20;99.90;;;;;;4992301;28;20420;-64
2021/12/17 10:16:20;;;;;;;9.80;2.15;;;20.20;99.90;;;;;;4992124;28;20023;-65
2021/12/17 10:18:50;;;;;;;4.63;1.58;;;20.20;99.90;;;;;;4992205;28;20058;-64
2021/12/17 10:21:26;;;;;;;11.27;1.75;;;20.20;99.90;;;;;;4990567;28;20022;-65
2021/12/17 10:23:58;;;;;;;4.05;1.58;;;20.10;99.90;;;;;;5007271;28;20092;-64
2021/12/17 10:26:28;;;;;;;6.03;2.03;;;20.00;99.90;;;;;;4995352;28;20027;-65
2021/12/17 10:28:57;;;;;;;13.60;2.35;;;20.10;99.90;;;;;;4995471;28;20475;-65
2021/12/17 10:31:27;;;;;;;5.53;1.30;;;20.00;99.90;;;;;;4995671;28;20105;-64
2021/12/17 10:34:00;;;;;;;11.57;2.42;;;20.00;99.90;;;;;;4995552;28;20027;-64
2021/12/17 10:36:42;;;;;;;13.98;2.25;;;20.00;99.90;;;;;;4995439;28;20029;-64
2021/12/17 10:39:31;;;;;;;10.60;1.83;;;19.90;99.90;;;;;;4995416;28;20026;-64
2021/12/17 10:42:01;;;;;;;7.00;1.80;;;19.90;99.90;;;;;;4994079;28;20086;-64
2021/12/17 10:44:28;;;;;;;8.73;2.92;;;19.90;99.90;;;;;;4995255;28;20038;-65
2021/12/17 10:47:32;;;;;;;9.15;2.10;;;19.90;99.90;;;;;;4995289;28;20114;-64
2021/12/17 10:50:02;;;;;;;8.60;2.03;;;19.90;99.90;;;;;;4993451;28;20475;-64
2021/12/17 10:52:39;;;;;;;13.38;2.70;;;19.80;99.90;;;;;;4995287;28;20015;-64
2021/12/17 10:55:15;;;;;;;6.30;1.50;;;19.80;99.90;;;;;;4994134;28;20109;-64
2021/12/17 10:57:43;;;;;;;8.70;1.80;;;19.70;99.90;;;;;;4994118;28;20034;-65
2021/12/17 11:00:12;;;;;;;6.90;1.90;;;19.60;99.90;;;;;;4994483;28;20034;-64
2021/12/17 11:02:49;;;;;;;6.03;1.58;;;19.70;99.90;;;;;;4993957;28;20057;-64
2021/12/17 11:05:18;;;;;;;9.88;1.95;;;19.70;99.90;;;;;;4994642;28;20026;-66
2021/12/17 11:07:47;;;;;;;8.52;1.85;;;19.60;99.90;;;;;;4994901;28;20050;-65
2021/12/17 11:10:17;;;;;;;7.47;2.45;;;19.60;99.90;;;;;;4994651;28;20399;-65
2021/12/17 11:12:46;;;;;;;6.70;1.67;;;19.60;99.90;;;;;;4994814;28;20387;-65
2021/12/17 11:15:27;;;;;;;5.65;1.70;;;19.50;99.90;;;;;;4994638;28;20105;-65
2021/12/17 11:18:12;;;;;;;10.13;2.60;;;19.40;99.90;;;;;;4994533;28;20027;-65
2021/12/17 11:20:41;;;;;;;8.50;2.00;;;19.50;99.90;;;;;;4994314;28;20104;-64
2021/12/17 11:23:13;;;;;;;6.68;1.80;;;19.50;99.90;;;;;;4994459;28;20659;-65
2021/12/17 11:25:53;;;;;;;7.07;1.98;;;19.50;99.90;;;;;;4994158;28;20027;-64
2021/12/17 11:28:22;;;;;;;10.23;1.77;;;19.50;99.90;;;;;;4992995;28;20069;-65
2021/12/17 11:30:51;;;;;;;7.65;1.73;;;19.50;99.90;;;;;;4993860;28;20026;-65
2021/12/17 11:33:20;;;;;;;6.45;1.90;;;19.50;99.90;;;;;;4994335;28;20112;-64
2021/12/17 11:35:49;;;;;;;8.65;1.83;;;19.50;99.90;;;;;;4994200;28;20093;-65
2021/12/17 11:38:20;;;;;;;8.02;2.08;;;19.40;99.90;;;;;;4992107;28;20077;-64
2021/12/17 11:41:10;;;;;;;6.72;2.30;;;19.40;99.90;;;;;;4993303;28;20069;-64
2021/12/17 11:44:00;;;;;;;17.25;2.47;;;19.40;99.90;;;;;;4994221;28;20094;-64
2021/12/17 11:46:31;;;;;;;6.43;2.17;;;19.40;99.90;;;;;;4993817;28;20407;-65
2021/12/17 11:49:02;;;;;;;5.03;1.73;;;19.30;99.90;;;;;;4992210;28;20030;-64
2021/12/17 11:51:35;;;;;;;7.90;1.92;;;19.30;99.90;;;;;;4993667;28;20022;-64
2021/12/17 11:54:18;;;;;;;8.40;2.60;;;19.30;99.90;;;;;;4992964;28;20026;-63
2021/12/17 11:56:52;;;;;;;4.82;1.55;;;19.30;99.90;;;;;;4994108;28;20076;-63
2021/12/17 11:59:29;;;;;;;8.90;2.05;;;19.20;99.90;;;;;;4993953;28;20022;-63
2021/12/17 12:02:16;;;;;;;5.75;1.83;;;19.20;99.90;;;;;;4991989;28;20137;-62
2021/12/17 12:04:51;;;;;;;9.85;3.00;;;19.20;99.90;;;;;;4993936;28;20038;-63
2021/12/17 12:07:30;;;;;;;4.57;1.50;;;19.10;99.90;;;;;;4994031;28;20040;-63
2021/12/17 12:10:14;;;;;;;8.57;1.73;;;19.10;99.90;;;;;;4992842;28;20058;-64
2021/12/17 12:12:46;;;;;;;8.48;2.17;;;19.10;99.90;;;;;;4992562;28;20043;-64
2021/12/17 12:15:23;;;;;;;9.93;2.00;;;19.00;99.90;;;;;;4994310;28;20061;-64
2021/12/17 12:18:02;;;;;;;7.30;1.63;;;19.00;99.90;;;;;;4994074;28;20030;-64
2021/12/17 12:20:45;;;;;;;9.23;1.85;;;19.00;99.90;;;;;;4994221;28;20023;-64
2021/12/17 12:23:22;;;;;;;7.38;2.13;;;19.00;99.90;;;;;;4994037;28;20480;-64
2021/12/17 12:26:05;;;;;;;12.40;1.58;;;19.00;99.90;;;;;;4994233;28;20035;-63
2021/12/17 12:28:48;;;;;;;9.57;2.28;;;19.00;99.90;;;;;;4991773;28;20035;-64
2021/12/17 12:31:38;;;;;;;11.90;2.35;;;18.90;99.90;;;;;;4989912;28;20033;-63
2021/12/17 12:34:10;;;;;;;10.07;2.63;;;18.90;99.90;;;;;;4995723;28;20491;-64
2021/12/17 12:37:21;;;;;;;13.30;2.67;;;18.90;99.90;;;;;;4991916;28;20030;-64
2021/12/17 12:39:53;;;;;;;9.25;2.08;;;18.80;99.90;;;;;;4992226;28;20073;-64
2021/12/17 12:42:22;;;;;;;3.83;1.95;;;18.80;99.90;;;;;;4989565;28;20030;-65
2021/12/17 12:44:50;;;;;;;7.05;2.08;;;18.80;99.90;;;;;;4991216;28;20395;-64
2021/12/17 12:47:26;;;;;;;8.50;2.80;;;18.80;99.90;;;;;;4992649;28;20030;-64
2021/12/17 12:50:01;;;;;;;7.63;1.60;;;18.80;99.90;;;;;;4992795;28;20038;-64
2021/12/17 12:52:32;;;;;;;6.90;1.85;;;18.80;99.90;;;;;;4994027;28;20476;-65
2021/12/17 12:55:16;;;;;;;7.68;1.60;;;18.80;99.90;;;;;;4994101;28;20046;-64
2021/12/17 12:58:01;;;;;;;15.35;2.13;;;18.80;99.90;;;;;;4994285;28;20027;-64
2021/12/17 13:00:41;;;;;;;5.93;2.08;;;18.80;99.90;;;;;;4994133;28;20517;-64
2021/12/17 13:03:13;;;;;;;9.85;2.35;;;18.70;99.90;;;;;;4994060;28;20073;-63
2021/12/17 13:05:43;;;;;;;10.20;2.80;;;18.70;99.90;;;;;;4994420;28;20038;-64
2021/12/17 13:08:14;;;;;;;4.38;1.85;;;18.70;99.90;;;;;;4994253;28;20022;-63
2021/12/17 13:11:03;;;;;;;9.88;2.80;;;18.60;99.90;;;;;;4993991;28;20057;-64
2021/12/17 13:13:38;;;;;;;5.03;2.10;;;18.60;99.90;;;;;;4994087;28;20134;-64
2021/12/17 13:21:59;;;;;;;9.25;2.50;;;18.50;99.90;;;;;;4993721;28;20499;-64
2021/12/17 13:24:32;;;;;;;9.27;2.25;;;18.50;99.90;;;;;;4993959;28;20062;-62
2021/12/17 13:27:10;;;;;;;7.90;1.67;;;18.50;99.90;;;;;;4993962;28;20062;-62
2021/12/17 13:29:44;;;;;;;7.80;2.28;;;18.40;99.90;;;;;;4993958;28;20065;-62
2021/12/17 13:32:17;;;;;;;6.85;1.58;;;18.40;99.90;;;;;;4993650;28;20031;-63
2021/12/17 13:34:52;;;;;;;8.18;2.05;;;18.30;99.90;;;;;;4993899;28;20467;-63
2021/12/17 13:37:30;;;;;;;8.32;2.08;;;18.30;99.90;;;;;;4993991;28;20034;-62
2021/12/17 13:40:12;;;;;;;7.15;2.30;;;18.30;99.90;;;;;;4994047;28;20026;-63
2021/12/17 13:42:46;;;;;;;8.43;2.67;;;18.30;99.90;;;;;;4993572;28;20109;-63
2021/12/17 13:45:21;;;;;;;5.40;1.85;;;18.20;99.90;;;;;;4992964;28;20106;-63
2021/12/17 13:47:50;;;;;;;6.47;1.80;;;18.20;99.90;;;;;;4993888;28;20023;-63
2021/12/17 13:50:28;;;;;;;12.52;2.45;;;18.20;99.90;;;;;;4993765;28;20034;-63
2021/12/17 13:53:11;;;;;;;5.30;1.90;;;18.20;99.90;;;;;;4994025;28;20152;-62
2021/12/17 13:55:48;;;;;;;8.20;2.08;;;18.20;99.90;;;;;;4993894;28;20027;-63
2021/12/17 13:58:22;;;;;;;7.53;1.52;;;18.20;99.90;;;;;;4993906;28;20027;-63
2021/12/17 14:00:55;;;;;;;6.22;2.00;;;18.10;99.90;;;;;;4996445;28;20033;-63
2021/12/17 14:03:28;;;;;;;8.45;2.50;;;18.20;99.90;;;;;;4999131;28;20165;-63
2021/12/17 14:06:08;;;;;;;5.78;1.90;;;18.10;99.90;;;;;;4997800;28;20486;-63
2021/12/17 14:08:42;;;;;;;6.32;2.03;;;18.10;99.90;;;;;;4997629;28;20058;-63
2021/12/17 14:11:20;;;;;;;4.85;1.90;;;18.10;99.90;;;;;;4997503;28;20387;-63
2021/12/17 14:13:48;;;;;;;8.98;2.40;;;18.20;99.90;;;;;;4997699;28;20463;-63
2021/12/17 14:16:28;;;;;;;6.60;2.45;;;18.20;99.90;;;;;;4997387;28;20034;-63
2021/12/17 14:19:00;;;;;;;11.07;2.35;;;18.20;99.90;;;;;;4997369;28;20062;-63
2021/12/17 14:21:29;;;;;;;11.57;2.53;;;18.20;99.90;;;;;;4997574;28;20023;-64
2021/12/17 14:23:56;;;;;;;6.68;2.15;;;18.10;99.90;;;;;;4997245;28;20042;-64
2021/12/17 14:26:30;;;;;;;7.32;2.30;;;18.10;99.90;;;;;;4997445;28;20535;-64
2021/12/17 14:29:08;;;;;;;9.43;1.95;;;18.10;99.90;;;;;;4997287;28;20038;-63
2021/12/17 14:31:36;;;;;;;6.35;2.35;;;18.10;99.90;;;;;;4997394;28;20030;-63
2021/12/17 14:34:03;;;;;;;11.38;2.45;;;18.00;99.90;;;;;;4997143;28;20498;-63
2021/12/17 14:36:39;;;;;;;6.50;2.10;;;18.00;99.90;;;;;;4997134;28;20076;-63
2021/12/17 14:39:10;;;;;;;;;;;18.00;99.90;;;;;;4995726;28;20074;-63
2021/12/17 14:42:02;;;;;;;5.55;2.05;;;18.00;99.90;;;;;;4997083;28;19906;-63
2021/12/17 14:44:48;;;;;;;3.95;1.63;;;18.00;99.90;;;;;;4995877;28;20193;-63
2021/12/17 15:01:14;;;;;;;12.82;2.58;;;17.80;99.90;;;;;;4996829;28;20031;-63
2021/12/17 15:03:42;;;;;;;13.57;2.47;;;17.80;99.90;;;;;;4996644;28;20055;-63
2021/12/17 15:06:11;;;;;;;8.02;1.70;;;17.80;99.90;;;;;;4996532;28;20418;-63
2021/12/17 15:08:40;;;;;;;11.07;1.67;;;17.70;99.90;;;;;;4996742;28;20105;-62
2021/12/17 15:11:37;;;;;;;9.27;2.38;;;17.70;99.90;;;;;;4996035;28;20053;-62
2021/12/17 15:13:57;;;;;;;11.30;2.72;;;17.70;99.90;;;;;;4996339;28;20037;-62
2021/12/17 15:16:24;;;;;;;10.18;1.98;;;17.60;99.90;;;;;;4996176;28;20030;-63
2021/12/17 15:18:52;;;;;;;4.72;1.75;;;17.60;99.90;;;;;;4996298;28;20428;-62
2021/12/17 15:21:19;;;;;;;7.80;2.08;;;17.60;99.90;;;;;;4996363;28;20458;-62
2021/12/17 15:23:47;;;;;;;13.50;2.90;;;17.50;99.90;;;;;;4995096;28;20141;-63
2021/12/17 15:26:14;;;;;;;7.05;2.13;;;17.60;99.90;;;;;;4996154;28;20034;-63
2021/12/17 15:28:41;;;;;;;4.25;1.73;;;17.50;99.90;;;;;;4996310;28;20031;-62
2021/12/17 15:31:09;;;;;;;7.88;2.25;;;17.50;99.90;;;;;;4996186;28;20026;-62
2021/12/17 15:33:36;;;;;;;4.55;2.63;;;17.50;99.90;;;;;;4996215;28;20076;-63
2021/12/17 15:36:05;;;;;;;5.72;2.30;;;17.50;99.90;;;;;;4996160;28;20026;-63
2021/12/17 15:38:32;;;;;;;7.70;2.38;;;17.50;99.90;;;;;;4996233;28;20022;-62
2021/12/17 15:41:00;;;;;;;8.02;1.90;;;17.50;99.90;;;;;;4995903;28;20054;-63
2021/12/17 15:43:28;;;;;;;5.70;1.90;;;17.40;99.90;;;;;;4995923;28;20106;-62
2021/12/17 15:45:55;;;;;;;5.45;1.98;;;17.40;99.90;;;;;;4995868;28;20030;-62
2021/12/17 15:48:23;;;;;;;10.90;2.22;;;17.40;99.90;;;;;;4995813;28;20058;-62
2021/12/17 15:50:51;;;;;;;8.43;2.58;;;17.40;99.90;;;;;;4995656;28;20462;-62
2021/12/17 15:53:18;;;;;;;8.88;2.28;;;17.40;99.90;;;;;;4995622;28;20057;-62
2021/12/17 15:55:46;;;;;;;10.50;2.45;;;17.40;99.90;;;;;;4995603;28;20480;-62
2021/12/17 15:58:14;;;;;;;8.23;2.08;;;17.30;99.90;;;;;;4995421;28;20029;-62
2021/12/17 16:00:41;;;;;;;9.70;2.25;;;17.30;99.90;;;;;;4995329;28;20034;-62
2021/12/17 16:03:11;;;;;;;6.97;1.90;;;17.30;99.90;;;;;;4995234;28;20082;-62
2021/12/17 16:05:38;;;;;;;5.30;2.00;;;17.30;99.90;;;;;;4995763;28;20036;-62